LLHA

Details ICAO LLHA (HFA)
Name Haifa
Region Israel
Timezone Asia/Jerusalem (UTC+2.0)
Plans Departing 62
Arriving 21
Stats Elevation 28 ft / 9 m (AMSL)
Location 32.811125° 35.044139°
Runways 1
Magnetic Variation 4.781° E
Sunrise 2017-12-12 04:34:16 UTC / 2017-12-12 06:34:16 Local
Sunset 2017-12-12 14:35:37 UTC / 2017-12-12 16:35:37 Local
Advertisement - Login to hide

Runways

ID Width Length Bearing (true) Bearing (mag) Surface Threshold Offset Overrun Length
16 98 ft / 30 m 4,161 ft / 1,268 m 158.88° 154.10° Asphalt 164 ft / 50 m 0 ft / 0 m
34 98 ft / 30 m 4,161 ft / 1,268 m 338.88° 334.10° Asphalt 380 ft / 116 m 90 ft / 27 m

Map

Weather


0- 5 10 15 20 25 30 35+ Temperature / ° C

Clouds and Precipitation
Forecast for 2017-12-12 12:00 UTC. Updated 2 hours ago

Ground ~20,000 ft ~40,000 ft Winds

METAR

LLHA 120850Z 12018KT CAVOK 22/M04 Q1021

TAF

TAF LLHA 112307Z 1200/1224 13010KT CAVOK BECMG 1202/1204 13017KT TEMPO 1204/1211 13020G30KT BECMG 1211/1213 10010KT PROB30 1213/1216 02005KT TX25/1212Z TN16/1204Z

Frequencies

Ground 127.80 MHz GND
Tower 133.00 MHz TWR
Warning: Do not use this data for real-world aviation or navigation. No guarantee of current accuracy is given.